NCAR-RAP Real-Time Weather Data

Output produced by METARs form (12 August 2020  18:53 UTC)
found at http://weather.rap.ucar.edu/surface/
 
KMGM 121753Z 01004KT 10SM CLR 33/23 A3002 RMK AO2 SLP162 T03280228 10328 20233 58015
KMGM 121653Z 00000KT 10SM CLR 31/23 A3005 RMK AO2 SLP173 T03060228
KMGM 121553Z 33005KT 10SM CLR 29/22 A3006 RMK AO2 SLP176 T02940222
KMGM 121453Z 27003KT 10SM CLR 29/24 A3006 RMK AO2 SLP177 T02890239 53006
KMGM 121353Z 29003KT 10SM FEW009 27/23 A3005 RMK AO2 SLP173 T02670233
KMGM 121349Z 30004KT 10SM FEW009 27/23 A3005 RMK AO2
KMGM 121253Z 00000KT 10SM CLR 25/22 A3004 RMK AO2 SLP171 T02500222
KMGM 121153Z 00000KT 8SM CLR 23/22 A3004 RMK AO2 SLP168 70087 T02330217 10239 20222 53019
KMGM 121053Z 00000KT 10SM CLR 23/21 A3001 RMK AO2 SLP158 T02280211
KMGM 120953Z AUTO 26003KT 10SM CLR 23/21 A2999 RMK AO2 SLP152 T02280211 TSNO
KMGM 120853Z AUTO 18004KT 10SM CLR 23/22 A2998 RMK AO2 SLP149 T02280217 58014
KMGM 120753Z AUTO 20003KT 10SM CLR 23/22 A3000 RMK AO2 SLP155 T02280217
KMGM 120653Z AUTO 32004KT 10SM CLR 24/22 A3002 RMK AO2 SLP163 T02390217
KMGM 120553Z AUTO 23003KT 10SM CLR 23/22 A3002 RMK AO2 SLP162 T02330217 10256 20233 403560233 58003
KMGM 120453Z AUTO 23003KT 10SM CLR 24/21 A3003 RMK AO2 SLP166 T02390211
KMGM 120353Z 20005KT 10SM CLR 24/22 A3002 RMK AO2 SLP163 T02440217
KMGM 120253Z 00000KT 10SM CLR 24/22 A3003 RMK AO2 SLP166 T02440222 53011
KMGM 120153Z 21004KT 10SM CLR 24/22 A3002 RMK AO2 SLP162 T02440222
KMGM 120053Z 19004KT 10SM CLR 25/22 A3000 RMK AO2 SLP156 T02500222
KMGM 112353Z 21005KT 10SM CLR 26/23 A3000 RMK AO2 SLP155 60087 T02560228 10356 20250 53009
KMGM 112253Z 00000KT 10SM CLR 26/23 A2996 RMK AO2 SLP141 T02610233
KMGM 112153Z 15006KT 10SM FEW048 26/23 A2998 RMK AO2 LTG DSNT SE RAE2056 SLP147 P0000 T02560228
KMGM 112053Z AUTO 23003KT 10SM -RA FEW050 BKN095 BKN110 26/23 A2997 RMK AO2 LTG DSNT SE AND S AND NW RAE20B39 SLP146 P0000 60087 T02560228 58003
KMGM 112049Z 00000KT 10SM -RA SCT100 BKN110 26/23 A2997 RMK AO2 LTG DSNT ALQDS RAE20B39 P0000
KMGM 111953Z 33008KT 10SM VCTS -RA SCT045 BKN070 BKN090 26/22 A2998 RMK AO2 PK WND 01038/1854 WSHFT 1842 LTG DSNT ALQDS TSE45 SLP149 P0086 T02610222
KMGM 111951Z 33009KT 10SM VCTS -RA SCT045 BKN070 BKN090 26/22 A2998 RMK AO2 PK WND 01038/1854 WSHFT 1842 LTG DSNT ALQDS TSE45 P0086
KMGM 111922Z 04007KT 330V100 4SM TSRA SCT016 BKN070 OVC090 26/21 A2999 RMK AO2 PK WND 01038/1854 WSHFT 1842 LTG DSNT ALQDS P0085 T02610211
KMGM 111917Z 10011KT 2 1/2SM TSRA BKN018 BKN060 OVC090 26/20 A2999 RMK AO2 PK WND 01038/1854 WSHFT 1842 LTG DSNT ALQDS P0084 T02560200
KMGM 111912Z 10009KT 1SM +TSRA BKN018 BKN044 OVC090 27/18 A2999 RMK AO2 PK WND 01038/1854 WSHFT 1842 LTG DSNT ALQDS P0078 T02670183
KMGM 111905Z 02009G36KT 1/2SM +TSRA SQ BKN014 BKN044 26/18 A3000 RMK AO2 PK WND 01038/1854 WSHFT 1842 LTG DSNT ALQDS P0053 T02610178
KMGM 111858Z 02015G51KT 330V110 1/2SM +TSRA BKN014 BKN043 27/19 A3000
KMGM 111853Z 31015G51KT 3/4SM +TSRA SQ FEW018 BKN043 BKN060 27/19 A2998 RMK AO2 PK WND 30051/1850 LTG DSNT ALQDS RAB48 TSB39 SLP148 P0001 T02670194
KMGM 111851Z 31030G51KT 1 1/4SM +TSRA SQ FEW020 BKN043 BKN060 28/21 A2998 RMK AO2 PK WND 30051/1850 LTG DSNT ALQDS RAB48 TSB39 P0000
KMGM 111845Z 29010KT 10SM TS BKN045 32/21 A2998 RMK AO2 LTG DSNT ALQDS TSB39 T03170206
KMGM 111836Z 27011G17KT 10SM VCTS BKN043 32/21 A2998 RMK AO2 LTG DSNT ALQDS T03170211
KMGM 111829Z 33005KT 10SM SCT041 BKN050 BKN065 34/23 A2998 RMK AO2 LTG DSNT ALQDS T03390233
KMGM 111810Z 00000KT 10SM VCTS FEW039 35/24 A3000 RMK AO2 LTG DSNT ALQDS T03500239
KMGM 111753Z VRB03KT 10SM FEW037 35/24 A3000 RMK AO2 LTG DSNT SW AND W SLP156 T03500244 10356 20239 58010
KMGM 111653Z 06004KT 10SM CLR 34/24 A3003 RMK AO2 SLP165 T03390244
KMGM 111553Z 34006KT 10SM CLR 33/24 A3005 RMK AO2 SLP172 T03280239
KMGM 111453Z 27004KT 10SM CLR 30/24 A3003 RMK AO2 SLP167 T03000244 50003
KMGM 111353Z 23004KT 10SM CLR 27/24 A3004 RMK AO2 SLP168 T02720239
KMGM 111253Z 00000KT 10SM CLR 26/23 A3004 RMK AO2 SLP168 T02610228
KMGM 111153Z 00000KT 10SM SCT110 24/23 A3003 RMK AO2 SLP165 70004 T02390228 10244 20233 53008
KMGM 111053Z AUTO 00000KT 10SM CLR 24/22 A3002 RMK AO2 SLP161 T02390222
KMGM 110953Z AUTO 00000KT 10SM CLR 24/22 A3001 RMK AO2 SLP158 T02390217
KMGM 110853Z AUTO 00000KT 10SM CLR 24/22 A3000 RMK AO2 SLP155 T02390217 56009
KMGM 110753Z AUTO 00000KT 10SM CLR 23/22 A3001 RMK AO2 SLP157 T02330217
KMGM 110653Z AUTO 00000KT 10SM CLR 24/22 A3001 RMK AO2 SLP159 T02390217
KMGM 110553Z AUTO 00000KT 10SM CLR 24/22 A3003 RMK AO2 SLP164 T02390222 10339 20239 403670239 58001
KMGM 110453Z AUTO 13003KT 10SM CLR 24/23 A3005 RMK AO2 SLP171 T02440228
KMGM 110353Z AUTO 17004KT 10SM CLR 24/22 A3005 RMK AO2 SLP171 T02440217
KMGM 110334Z 15005KT 10SM CLR 26/21 A3004 RMK AO2 T02610206
KMGM 110319Z AUTO 09006KT 10SM VCTS FEW023 FEW060 27/21 A3003 RMK AO2 LTG DSNT W AND NW T02670211
KMGM 110304Z 09008KT 10SM SCT025 BKN055 27/22 A3003 RMK AO2 LTG DSNT SE AND W AND NW T02670217
KMGM 110253Z 12012KT 10SM VCTS FEW031 BKN055 27/22 A3003 RMK AO2 LTG DSNT ALQDS TSB17E32B35E50 SLP165 T02670217 52017
KMGM 110217Z 16008KT 10SM TS BKN055 OVC070 28/22 A3004 RMK AO2 TSB17 T02780217
KMGM 110153Z 12010KT 10SM BKN050 BKN060 28/21 A3002 RMK AO2 LTG DSNT SE SLP163 T02830211
KMGM 110141Z 10014KT 10SM SCT055 BKN080 29/21 A3002 RMK AO2 LTG DSNT SE AND S T02890211
KMGM 110126Z 09012KT 10SM VCTS BKN055 OVC080 29/22 A3001 RMK AO2 LTG DSNT SE AND S T02940217
KMGM 110053Z 13011G16KT 9SM FEW070 31/23 A2999 RMK AO2 LTG DSNT NE-S SLP152 T03060233
KMGM 102353Z 35005KT 10SM CLR 34/23 A2998 RMK AO2 LTG DSNT NE-SE SLP148 60004 T03390233 10367 20306 55003
KMGM 102253Z 31004KT 10SM CLR 33/23 A2997 RMK AO2 LTG DSNT N-SE SLP145 T03330228
KMGM 102153Z 15003KT 10SM FEW040 BKN065 BKN080 32/24 A2997 RMK AO2 LTG DSNT E RAB24E41 SLP146 P0004 T03220239
KMGM 102053Z 31006KT 10SM CLR 36/21 A2999 RMK AO2 LTG DSNT NW SLP151 T03610211 56029
KMGM 101953Z VRB04KT 10SM FEW055 36/22 A3002 RMK AO2 SLP160 T03610222